sensor_id;sensor_type;location;lat;lon;timestamp;P1;durP1;ratioP1;P2;durP2;ratioP2
21806;SDS011;11065;50.786;7.840;2024-03-08T00:00:49;14.27;;;10.50;;
21806;SDS011;11065;50.786;7.840;2024-03-08T00:03:17;15.50;;;10.50;;
21806;SDS011;11065;50.786;7.840;2024-03-08T00:05:45;14.57;;;9.80;;
21806;SDS011;11065;50.786;7.840;2024-03-08T00:08:14;15.63;;;10.27;;
21806;SDS011;11065;50.786;7.840;2024-03-08T00:10:42;15.67;;;10.80;;
21806;SDS011;11065;50.786;7.840;2024-03-08T00:13:11;14.37;;;10.13;;
21806;SDS011;11065;50.786;7.840;2024-03-08T00:15:39;15.47;;;10.17;;
21806;SDS011;11065;50.786;7.840;2024-03-08T00:18:07;15.93;;;10.43;;
21806;SDS011;11065;50.786;7.840;2024-03-08T00:20:36;16.17;;;10.23;;
21806;SDS011;11065;50.786;7.840;2024-03-08T00:23:05;13.53;;;9.50;;
21806;SDS011;11065;50.786;7.840;2024-03-08T00:25:32;14.50;;;10.27;;
21806;SDS011;11065;50.786;7.840;2024-03-08T00:28:02;16.97;;;10.83;;
21806;SDS011;11065;50.786;7.840;2024-03-08T00:30:32;15.27;;;10.87;;
21806;SDS011;11065;50.786;7.840;2024-03-08T00:33:01;13.60;;;9.90;;
21806;SDS011;11065;50.786;7.840;2024-03-08T00:35:29;14.43;;;10.73;;
21806;SDS011;11065;50.786;7.840;2024-03-08T00:37:57;14.40;;;10.63;;
21806;SDS011;11065;50.786;7.840;2024-03-08T00:40:24;14.27;;;9.77;;
21806;SDS011;11065;50.786;7.840;2024-03-08T00:42:52;15.00;;;10.73;;
21806;SDS011;11065;50.786;7.840;2024-03-08T00:45:19;16.87;;;10.17;;
21806;SDS011;11065;50.786;7.840;2024-03-08T00:47:49;13.73;;;10.73;;
21806;SDS011;11065;50.786;7.840;2024-03-08T00:50:17;14.47;;;10.43;;
21806;SDS011;11065;50.786;7.840;2024-03-08T00:52:45;14.57;;;10.47;;
21806;SDS011;11065;50.786;7.840;2024-03-08T00:55:13;16.13;;;10.57;;
21806;SDS011;11065;50.786;7.840;2024-03-08T00:57:41;14.60;;;9.90;;
21806;SDS011;11065;50.786;7.840;2024-03-08T01:00:10;14.47;;;10.53;;
21806;SDS011;11065;50.786;7.840;2024-03-08T01:02:39;15.30;;;10.93;;
21806;SDS011;11065;50.786;7.840;2024-03-08T01:05:09;15.47;;;10.80;;
21806;SDS011;11065;50.786;7.840;2024-03-08T01:07:37;14.83;;;10.93;;
21806;SDS011;11065;50.786;7.840;2024-03-08T01:10:05;15.33;;;11.20;;
21806;SDS011;11065;50.786;7.840;2024-03-08T01:12:36;14.97;;;10.80;;
21806;SDS011;11065;50.786;7.840;2024-03-08T01:15:04;14.13;;;10.67;;
21806;SDS011;11065;50.786;7.840;2024-03-08T01:17:33;14.73;;;10.77;;
21806;SDS011;11065;50.786;7.840;2024-03-08T01:20:01;14.67;;;10.77;;
21806;SDS011;11065;50.786;7.840;2024-03-08T01:22:31;15.97;;;10.63;;
21806;SDS011;11065;50.786;7.840;2024-03-08T01:24:59;14.67;;;11.50;;
21806;SDS011;11065;50.786;7.840;2024-03-08T01:27:27;15.97;;;10.57;;
21806;SDS011;11065;50.786;7.840;2024-03-08T01:29:54;16.63;;;11.43;;
21806;SDS011;11065;50.786;7.840;2024-03-08T01:32:22;14.70;;;10.07;;
21806;SDS011;11065;50.786;7.840;2024-03-08T01:34:50;14.90;;;10.67;;
21806;SDS011;11065;50.786;7.840;2024-03-08T01:37:18;15.87;;;11.30;;
21806;SDS011;11065;50.786;7.840;2024-03-08T01:39:47;16.10;;;11.23;;
21806;SDS011;11065;50.786;7.840;2024-03-08T01:42:15;17.43;;;11.73;;
21806;SDS011;11065;50.786;7.840;2024-03-08T01:44:44;17.50;;;11.63;;
21806;SDS011;11065;50.786;7.840;2024-03-08T01:47:12;15.47;;;10.43;;
21806;SDS011;11065;50.786;7.840;2024-03-08T01:49:40;14.50;;;10.50;;
21806;SDS011;11065;50.786;7.840;2024-03-08T01:52:08;14.77;;;10.80;;
21806;SDS011;11065;50.786;7.840;2024-03-08T01:54:36;14.10;;;10.27;;
21806;SDS011;11065;50.786;7.840;2024-03-08T01:57:06;17.00;;;10.83;;
21806;SDS011;11065;50.786;7.840;2024-03-08T01:59:34;13.60;;;10.77;;
21806;SDS011;11065;50.786;7.840;2024-03-08T02:02:02;15.13;;;10.50;;
21806;SDS011;11065;50.786;7.840;2024-03-08T02:04:35;14.97;;;11.10;;
21806;SDS011;11065;50.786;7.840;2024-03-08T02:07:05;15.03;;;10.93;;
21806;SDS011;11065;50.786;7.840;2024-03-08T02:09:36;14.07;;;10.20;;
21806;SDS011;11065;50.786;7.840;2024-03-08T02:12:07;15.87;;;11.03;;
21806;SDS011;11065;50.786;7.840;2024-03-08T02:14:38;17.47;;;10.83;;
21806;SDS011;11065;50.786;7.840;2024-03-08T02:17:06;17.03;;;12.17;;
21806;SDS011;11065;50.786;7.840;2024-03-08T02:19:34;18.00;;;11.53;;
21806;SDS011;11065;50.786;7.840;2024-03-08T02:22:04;13.83;;;10.30;;
21806;SDS011;11065;50.786;7.840;2024-03-08T02:24:33;15.60;;;11.47;;
21806;SDS011;11065;50.786;7.840;2024-03-08T02:27:01;15.13;;;10.73;;
21806;SDS011;11065;50.786;7.840;2024-03-08T02:29:29;16.63;;;11.80;;
21806;SDS011;11065;50.786;7.840;2024-03-08T02:31:58;14.43;;;10.80;;
21806;SDS011;11065;50.786;7.840;2024-03-08T02:34:26;14.40;;;10.73;;
21806;SDS011;11065;50.786;7.840;2024-03-08T02:36:54;15.03;;;10.97;;
21806;SDS011;11065;50.786;7.840;2024-03-08T02:39:24;15.97;;;11.53;;
21806;SDS011;11065;50.786;7.840;2024-03-08T02:41:54;14.57;;;10.70;;
21806;SDS011;11065;50.786;7.840;2024-03-08T02:44:22;14.37;;;10.90;;
21806;SDS011;11065;50.786;7.840;2024-03-08T02:46:50;16.33;;;11.10;;
21806;SDS011;11065;50.786;7.840;2024-03-08T02:49:21;17.93;;;11.50;;
21806;SDS011;11065;50.786;7.840;2024-03-08T02:51:49;15.50;;;11.50;;
21806;SDS011;11065;50.786;7.840;2024-03-08T02:54:17;15.40;;;11.10;;
21806;SDS011;11065;50.786;7.840;2024-03-08T02:56:46;14.50;;;11.10;;
21806;SDS011;11065;50.786;7.840;2024-03-08T02:59:16;17.87;;;11.10;;
21806;SDS011;11065;50.786;7.840;2024-03-08T03:01:45;16.77;;;11.37;;
21806;SDS011;11065;50.786;7.840;2024-03-08T03:04:13;15.67;;;10.50;;
21806;SDS011;11065;50.786;7.840;2024-03-08T03:06:41;15.97;;;11.67;;
21806;SDS011;11065;50.786;7.840;2024-03-08T03:09:08;14.00;;;10.43;;
21806;SDS011;11065;50.786;7.840;2024-03-08T03:11:37;14.70;;;10.83;;
21806;SDS011;11065;50.786;7.840;2024-03-08T03:14:06;17.53;;;11.33;;
21806;SDS011;11065;50.786;7.840;2024-03-08T03:16:35;17.10;;;12.07;;
21806;SDS011;11065;50.786;7.840;2024-03-08T03:19:03;16.17;;;10.77;;
21806;SDS011;11065;50.786;7.840;2024-03-08T03:21:31;18.70;;;11.37;;
21806;SDS011;11065;50.786;7.840;2024-03-08T03:24:02;17.30;;;12.67;;
21806;SDS011;11065;50.786;7.840;2024-03-08T03:26:30;17.23;;;12.03;;
21806;SDS011;11065;50.786;7.840;2024-03-08T03:28:58;14.50;;;10.90;;
21806;SDS011;11065;50.786;7.840;2024-03-08T03:31:28;15.70;;;12.03;;
21806;SDS011;11065;50.786;7.840;2024-03-08T03:33:56;16.27;;;11.53;;
21806;SDS011;11065;50.786;7.840;2024-03-08T03:36:28;17.10;;;11.73;;
21806;SDS011;11065;50.786;7.840;2024-03-08T03:38:56;18.00;;;12.10;;
21806;SDS011;11065;50.786;7.840;2024-03-08T03:41:33;16.70;;;11.23;;
21806;SDS011;11065;50.786;7.840;2024-03-08T03:44:01;17.53;;;12.33;;
21806;SDS011;11065;50.786;7.840;2024-03-08T03:46:30;16.07;;;11.43;;
21806;SDS011;11065;50.786;7.840;2024-03-08T03:48:58;15.80;;;11.97;;
21806;SDS011;11065;50.786;7.840;2024-03-08T03:51:26;16.27;;;11.47;;
21806;SDS011;11065;50.786;7.840;2024-03-08T03:53:55;15.33;;;11.57;;
21806;SDS011;11065;50.786;7.840;2024-03-08T03:56:25;17.77;;;12.40;;
21806;SDS011;11065;50.786;7.840;2024-03-08T03:58:53;18.87;;;11.90;;
21806;SDS011;11065;50.786;7.840;2024-03-08T04:01:21;17.47;;;12.97;;
21806;SDS011;11065;50.786;7.840;2024-03-08T04:03:51;16.50;;;11.90;;
21806;SDS011;11065;50.786;7.840;2024-03-08T04:06:19;18.03;;;12.33;;
21806;SDS011;11065;50.786;7.840;2024-03-08T04:08:48;20.17;;;12.73;;
21806;SDS011;11065;50.786;7.840;2024-03-08T04:11:17;16.67;;;11.80;;
21806;SDS011;11065;50.786;7.840;2024-03-08T04:13:45;17.00;;;11.90;;
21806;SDS011;11065;50.786;7.840;2024-03-08T04:16:12;17.33;;;12.17;;
21806;SDS011;11065;50.786;7.840;2024-03-08T04:18:40;19.30;;;12.13;;
21806;SDS011;11065;50.786;7.840;2024-03-08T04:21:11;17.33;;;12.33;;
21806;SDS011;11065;50.786;7.840;2024-03-08T04:23:39;18.10;;;12.50;;
21806;SDS011;11065;50.786;7.840;2024-03-08T04:26:07;16.87;;;12.03;;
21806;SDS011;11065;50.786;7.840;2024-03-08T04:28:35;17.53;;;11.80;;
21806;SDS011;11065;50.786;7.840;2024-03-08T04:31:03;16.63;;;12.00;;
21806;SDS011;11065;50.786;7.840;2024-03-08T04:33:31;16.90;;;12.27;;
21806;SDS011;11065;50.786;7.840;2024-03-08T04:36:02;18.37;;;12.93;;
21806;SDS011;11065;50.786;7.840;2024-03-08T04:38:32;17.20;;;12.23;;
21806;SDS011;11065;50.786;7.840;2024-03-08T04:41:00;17.83;;;12.37;;
21806;SDS011;11065;50.786;7.840;2024-03-08T04:43:28;17.70;;;12.03;;
21806;SDS011;11065;50.786;7.840;2024-03-08T04:45:56;20.67;;;13.23;;
21806;SDS011;11065;50.786;7.840;2024-03-08T04:48:25;17.20;;;12.33;;
21806;SDS011;11065;50.786;7.840;2024-03-08T04:50:53;18.27;;;11.73;;
21806;SDS011;11065;50.786;7.840;2024-03-08T04:53:22;15.93;;;11.47;;
21806;SDS011;11065;50.786;7.840;2024-03-08T04:55:51;16.60;;;12.20;;
21806;SDS011;11065;50.786;7.840;2024-03-08T04:58:19;18.80;;;12.50;;
21806;SDS011;11065;50.786;7.840;2024-03-08T05:00:47;17.43;;;12.70;;
21806;SDS011;11065;50.786;7.840;2024-03-08T05:03:15;16.43;;;11.90;;
21806;SDS011;11065;50.786;7.840;2024-03-08T05:05:43;18.40;;;12.37;;
21806;SDS011;11065;50.786;7.840;2024-03-08T05:08:11;18.03;;;13.03;;
21806;SDS011;11065;50.786;7.840;2024-03-08T05:10:39;17.23;;;12.07;;
21806;SDS011;11065;50.786;7.840;2024-03-08T05:13:09;20.50;;;12.20;;
21806;SDS011;11065;50.786;7.840;2024-03-08T05:15:37;16.10;;;11.90;;
21806;SDS011;11065;50.786;7.840;2024-03-08T05:18:05;19.70;;;12.83;;
21806;SDS011;11065;50.786;7.840;2024-03-08T05:20:34;17.67;;;12.80;;
21806;SDS011;11065;50.786;7.840;2024-03-08T05:23:03;18.03;;;12.33;;
21806;SDS011;11065;50.786;7.840;2024-03-08T05:25:31;15.73;;;11.50;;
21806;SDS011;11065;50.786;7.840;2024-03-08T05:27:59;17.83;;;12.53;;
21806;SDS011;11065;50.786;7.840;2024-03-08T05:30:28;17.33;;;12.43;;
21806;SDS011;11065;50.786;7.840;2024-03-08T05:32:58;18.53;;;13.20;;
21806;SDS011;11065;50.786;7.840;2024-03-08T05:35:26;18.23;;;13.33;;
21806;SDS011;11065;50.786;7.840;2024-03-08T05:37:54;22.03;;;14.53;;
21806;SDS011;11065;50.786;7.840;2024-03-08T05:40:22;19.33;;;14.40;;
21806;SDS011;11065;50.786;7.840;2024-03-08T05:42:50;20.00;;;13.23;;
21806;SDS011;11065;50.786;7.840;2024-03-08T05:45:18;19.37;;;14.23;;
21806;SDS011;11065;50.786;7.840;2024-03-08T05:47:47;18.53;;;12.90;;
21806;SDS011;11065;50.786;7.840;2024-03-08T05:50:15;20.07;;;13.07;;
21806;SDS011;11065;50.786;7.840;2024-03-08T05:52:43;18.17;;;12.60;;
21806;SDS011;11065;50.786;7.840;2024-03-08T05:55:11;17.37;;;12.70;;
21806;SDS011;11065;50.786;7.840;2024-03-08T05:57:40;18.63;;;13.13;;
21806;SDS011;11065;50.786;7.840;2024-03-08T06:00:09;16.83;;;12.33;;
21806;SDS011;11065;50.786;7.840;2024-03-08T06:02:38;17.60;;;12.80;;
21806;SDS011;11065;50.786;7.840;2024-03-08T06:05:09;17.93;;;12.97;;
21806;SDS011;11065;50.786;7.840;2024-03-08T06:07:38;17.57;;;12.07;;
21806;SDS011;11065;50.786;7.840;2024-03-08T06:10:07;17.43;;;11.93;;
21806;SDS011;11065;50.786;7.840;2024-03-08T06:12:37;17.93;;;12.23;;
21806;SDS011;11065;50.786;7.840;2024-03-08T06:15:08;18.10;;;12.47;;
21806;SDS011;11065;50.786;7.840;2024-03-08T06:17:40;17.87;;;12.47;;
21806;SDS011;11065;50.786;7.840;2024-03-08T06:20:11;19.90;;;13.27;;
21806;SDS011;11065;50.786;7.840;2024-03-08T06:22:41;18.70;;;13.20;;
21806;SDS011;11065;50.786;7.840;2024-03-08T06:25:10;15.93;;;11.90;;
21806;SDS011;11065;50.786;7.840;2024-03-08T06:27:40;21.87;;;13.17;;
21806;SDS011;11065;50.786;7.840;2024-03-08T06:30:09;19.53;;;13.50;;
21806;SDS011;11065;50.786;7.840;2024-03-08T06:32:38;20.73;;;12.47;;
21806;SDS011;11065;50.786;7.840;2024-03-08T06:35:06;17.67;;;12.97;;
21806;SDS011;11065;50.786;7.840;2024-03-08T06:37:38;18.17;;;13.10;;
21806;SDS011;11065;50.786;7.840;2024-03-08T06:40:06;19.67;;;12.93;;
21806;SDS011;11065;50.786;7.840;2024-03-08T06:42:39;17.13;;;11.90;;
21806;SDS011;11065;50.786;7.840;2024-03-08T06:45:08;19.10;;;13.10;;
21806;SDS011;11065;50.786;7.840;2024-03-08T06:47:36;19.67;;;13.27;;
21806;SDS011;11065;50.786;7.840;2024-03-08T06:50:05;18.40;;;11.97;;
21806;SDS011;11065;50.786;7.840;2024-03-08T06:52:34;17.33;;;12.30;;
21806;SDS011;11065;50.786;7.840;2024-03-08T06:55:04;17.00;;;11.87;;
21806;SDS011;11065;50.786;7.840;2024-03-08T06:57:33;18.40;;;11.77;;
21806;SDS011;11065;50.786;7.840;2024-03-08T07:00:00;16.90;;;11.63;;
21806;SDS011;11065;50.786;7.840;2024-03-08T07:02:28;19.30;;;12.03;;
21806;SDS011;11065;50.786;7.840;2024-03-08T07:04:58;16.87;;;12.23;;
21806;SDS011;11065;50.786;7.840;2024-03-08T07:07:27;19.47;;;12.60;;
21806;SDS011;11065;50.786;7.840;2024-03-08T07:09:56;18.60;;;12.50;;
21806;SDS011;11065;50.786;7.840;2024-03-08T07:12:25;18.63;;;12.70;;
21806;SDS011;11065;50.786;7.840;2024-03-08T07:14:53;18.23;;;12.67;;
21806;SDS011;11065;50.786;7.840;2024-03-08T07:17:22;20.20;;;13.33;;
21806;SDS011;11065;50.786;7.840;2024-03-08T07:19:50;21.60;;;12.80;;
21806;SDS011;11065;50.786;7.840;2024-03-08T07:22:20;17.73;;;12.50;;
21806;SDS011;11065;50.786;7.840;2024-03-08T07:24:49;20.37;;;12.57;;
21806;SDS011;11065;50.786;7.840;2024-03-08T07:27:32;18.57;;;12.90;;
21806;SDS011;11065;50.786;7.840;2024-03-08T07:30:02;18.43;;;12.53;;
21806;SDS011;11065;50.786;7.840;2024-03-08T07:32:34;19.07;;;13.03;;
21806;SDS011;11065;50.786;7.840;2024-03-08T07:35:02;18.00;;;12.43;;
21806;SDS011;11065;50.786;7.840;2024-03-08T07:37:31;19.47;;;13.23;;
21806;SDS011;11065;50.786;7.840;2024-03-08T07:39:59;20.47;;;13.17;;
21806;SDS011;11065;50.786;7.840;2024-03-08T07:42:27;18.20;;;13.30;;
21806;SDS011;11065;50.786;7.840;2024-03-08T07:44:57;18.33;;;13.13;;
21806;SDS011;11065;50.786;7.840;2024-03-08T07:47:26;18.43;;;12.40;;
21806;SDS011;11065;50.786;7.840;2024-03-08T07:49:54;18.20;;;12.80;;
21806;SDS011;11065;50.786;7.840;2024-03-08T07:52:23;19.37;;;13.50;;
21806;SDS011;11065;50.786;7.840;2024-03-08T07:54:52;20.90;;;12.53;;
21806;SDS011;11065;50.786;7.840;2024-03-08T07:57:21;18.57;;;12.43;;
21806;SDS011;11065;50.786;7.840;2024-03-08T07:59:49;20.63;;;13.27;;
21806;SDS011;11065;50.786;7.840;2024-03-08T08:02:18;17.90;;;12.37;;
21806;SDS011;11065;50.786;7.840;2024-03-08T08:04:46;17.97;;;12.83;;
21806;SDS011;11065;50.786;7.840;2024-03-08T08:07:14;20.30;;;12.53;;
21806;SDS011;11065;50.786;7.840;2024-03-08T08:09:42;17.47;;;12.83;;
21806;SDS011;11065;50.786;7.840;2024-03-08T08:12:10;18.23;;;12.93;;
21806;SDS011;11065;50.786;7.840;2024-03-08T08:14:39;16.77;;;11.93;;
21806;SDS011;11065;50.786;7.840;2024-03-08T08:17:07;17.10;;;12.17;;
21806;SDS011;11065;50.786;7.840;2024-03-08T08:19:37;18.20;;;12.70;;
21806;SDS011;11065;50.786;7.840;2024-03-08T08:22:05;18.77;;;13.27;;
21806;SDS011;11065;50.786;7.840;2024-03-08T08:24:35;16.90;;;11.90;;
21806;SDS011;11065;50.786;7.840;2024-03-08T08:27:04;20.63;;;12.60;;
21806;SDS011;11065;50.786;7.840;2024-03-08T08:29:33;17.77;;;12.50;;
21806;SDS011;11065;50.786;7.840;2024-03-08T08:32:01;16.83;;;11.73;;
21806;SDS011;11065;50.786;7.840;2024-03-08T08:34:30;19.80;;;12.23;;
21806;SDS011;11065;50.786;7.840;2024-03-08T08:36:59;17.30;;;11.93;;
21806;SDS011;11065;50.786;7.840;2024-03-08T08:39:27;18.40;;;12.40;;
21806;SDS011;11065;50.786;7.840;2024-03-08T08:41:55;17.17;;;11.23;;
21806;SDS011;11065;50.786;7.840;2024-03-08T08:44:24;15.83;;;11.10;;
21806;SDS011;11065;50.786;7.840;2024-03-08T08:46:52;15.90;;;11.77;;
21806;SDS011;11065;50.786;7.840;2024-03-08T08:49:28;13.30;;;10.10;;
21806;SDS011;11065;50.786;7.840;2024-03-08T08:51:57;15.03;;;10.03;;
21806;SDS011;11065;50.786;7.840;2024-03-08T08:54:38;12.60;;;10.43;;
21806;SDS011;11065;50.786;7.840;2024-03-08T08:57:06;14.57;;;10.33;;
21806;SDS011;11065;50.786;7.840;2024-03-08T08:59:34;14.50;;;10.90;;
21806;SDS011;11065;50.786;7.840;2024-03-08T09:02:03;14.40;;;11.02;;
21806;SDS011;11065;50.786;7.840;2024-03-08T09:04:31;13.82;;;11.27;;
21806;SDS011;11065;50.786;7.840;2024-03-08T09:06:59;15.43;;;11.82;;
21806;SDS011;11065;50.786;7.840;2024-03-08T09:09:27;12.98;;;11.23;;
21806;SDS011;11065;50.786;7.840;2024-03-08T09:11:57;13.35;;;11.32;;
21806;SDS011;11065;50.786;7.840;2024-03-08T09:14:25;12.20;;;9.68;;
21806;SDS011;11065;50.786;7.840;2024-03-08T09:16:53;12.35;;;10.48;;
21806;SDS011;11065;50.786;7.840;2024-03-08T09:19:21;12.25;;;11.00;;
21806;SDS011;11065;50.786;7.840;2024-03-08T09:21:52;12.95;;;10.68;;
21806;SDS011;11065;50.786;7.840;2024-03-08T09:24:20;11.38;;;10.18;;
21806;SDS011;11065;50.786;7.840;2024-03-08T09:26:48;11.15;;;9.77;;
21806;SDS011;11065;50.786;7.840;2024-03-08T09:29:17;11.88;;;10.20;;
21806;SDS011;11065;50.786;7.840;2024-03-08T09:31:45;10.93;;;9.68;;
21806;SDS011;11065;50.786;7.840;2024-03-08T09:34:13;11.43;;;10.32;;
21806;SDS011;11065;50.786;7.840;2024-03-08T09:36:50;10.27;;;9.13;;
21806;SDS011;11065;50.786;7.840;2024-03-08T09:39:19;10.82;;;9.73;;
21806;SDS011;11065;50.786;7.840;2024-03-08T09:41:49;10.77;;;9.23;;
21806;SDS011;11065;50.786;7.840;2024-03-08T09:44:19;10.70;;;9.60;;
21806;SDS011;11065;50.786;7.840;2024-03-08T09:46:47;11.68;;;10.02;;
21806;SDS011;11065;50.786;7.840;2024-03-08T09:49:15;12.10;;;10.20;;
21806;SDS011;11065;50.786;7.840;2024-03-08T09:51:43;10.35;;;9.23;;
21806;SDS011;11065;50.786;7.840;2024-03-08T09:54:12;9.82;;;8.82;;
21806;SDS011;11065;50.786;7.840;2024-03-08T09:56:49;9.55;;;8.55;;
21806;SDS011;11065;50.786;7.840;2024-03-08T09:59:21;9.70;;;8.70;;
21806;SDS011;11065;50.786;7.840;2024-03-08T10:02:12;10.00;;;8.98;;
21806;SDS011;11065;50.786;7.840;2024-03-08T10:04:43;9.85;;;8.85;;
21806;SDS011;11065;50.786;7.840;2024-03-08T10:07:13;10.05;;;8.88;;
21806;SDS011;11065;50.786;7.840;2024-03-08T10:09:41;11.35;;;8.25;;
21806;SDS011;11065;50.786;7.840;2024-03-08T10:12:15;10.23;;;9.20;;
21806;SDS011;11065;50.786;7.840;2024-03-08T10:14:46;9.68;;;8.65;;
21806;SDS011;11065;50.786;7.840;2024-03-08T10:17:14;9.50;;;8.15;;
21806;SDS011;11065;50.786;7.840;2024-03-08T10:19:49;9.48;;;8.10;;
21806;SDS011;11065;50.786;7.840;2024-03-08T10:22:18;9.57;;;8.40;;
21806;SDS011;11065;50.786;7.840;2024-03-08T10:24:46;9.95;;;8.85;;
21806;SDS011;11065;50.786;7.840;2024-03-08T10:27:16;9.55;;;7.93;;
21806;SDS011;11065;50.786;7.840;2024-03-08T10:29:47;9.02;;;8.13;;
21806;SDS011;11065;50.786;7.840;2024-03-08T10:32:17;8.65;;;7.57;;
21806;SDS011;11065;50.786;7.840;2024-03-08T10:34:46;7.93;;;6.78;;
21806;SDS011;11065;50.786;7.840;2024-03-08T10:37:16;8.10;;;7.28;;
21806;SDS011;11065;50.786;7.840;2024-03-08T10:39:52;8.38;;;7.50;;
21806;SDS011;11065;50.786;7.840;2024-03-08T10:42:37;8.90;;;7.25;;
21806;SDS011;11065;50.786;7.840;2024-03-08T10:45:12;8.63;;;6.47;;
21806;SDS011;11065;50.786;7.840;2024-03-08T10:47:48;8.10;;;7.30;;
21806;SDS011;11065;50.786;7.840;2024-03-08T10:50:17;9.02;;;7.60;;
21806;SDS011;11065;50.786;7.840;2024-03-08T10:52:48;8.43;;;6.75;;
21806;SDS011;11065;50.786;7.840;2024-03-08T10:55:17;8.35;;;7.05;;
21806;SDS011;11065;50.786;7.840;2024-03-08T10:57:46;7.35;;;6.57;;
21806;SDS011;11065;50.786;7.840;2024-03-08T11:00:16;8.00;;;7.20;;
21806;SDS011;11065;50.786;7.840;2024-03-08T11:02:52;7.93;;;6.90;;
21806;SDS011;11065;50.786;7.840;2024-03-08T11:05:30;7.30;;;5.90;;
21806;SDS011;11065;50.786;7.840;2024-03-08T11:08:02;6.95;;;6.25;;
21806;SDS011;11065;50.786;7.840;2024-03-08T11:10:32;8.23;;;6.95;;
21806;SDS011;11065;50.786;7.840;2024-03-08T11:13:00;11.88;;;7.35;;
21806;SDS011;11065;50.786;7.840;2024-03-08T11:15:29;11.02;;;8.68;;
21806;SDS011;11065;50.786;7.840;2024-03-08T11:17:58;9.75;;;7.50;;
21806;SDS011;11065;50.786;7.840;2024-03-08T11:20:27;8.52;;;6.80;;
21806;SDS011;11065;50.786;7.840;2024-03-08T11:22:59;7.25;;;6.50;;
21806;SDS011;11065;50.786;7.840;2024-03-08T11:25:36;7.50;;;6.53;;
21806;SDS011;11065;50.786;7.840;2024-03-08T11:28:11;12.45;;;8.32;;
21806;SDS011;11065;50.786;7.840;2024-03-08T11:31:21;9.77;;;7.75;;
21806;SDS011;11065;50.786;7.840;2024-03-08T11:33:53;8.48;;;7.40;;
21806;SDS011;11065;50.786;7.840;2024-03-08T11:36:21;9.30;;;7.43;;
21806;SDS011;11065;50.786;7.840;2024-03-08T11:38:51;8.43;;;7.63;;
21806;SDS011;11065;50.786;7.840;2024-03-08T11:41:22;9.13;;;8.23;;
21806;SDS011;11065;50.786;7.840;2024-03-08T11:44:01;9.65;;;7.82;;
21806;SDS011;11065;50.786;7.840;2024-03-08T11:46:32;9.68;;;7.65;;
21806;SDS011;11065;50.786;7.840;2024-03-08T11:49:02;11.10;;;8.70;;
21806;SDS011;11065;50.786;7.840;2024-03-08T11:51:31;9.82;;;7.70;;
21806;SDS011;11065;50.786;7.840;2024-03-08T11:54:00;9.55;;;7.97;;
21806;SDS011;11065;50.786;7.840;2024-03-08T11:56:29;10.63;;;8.60;;
21806;SDS011;11065;50.786;7.840;2024-03-08T11:58:58;9.35;;;8.23;;
21806;SDS011;11065;50.786;7.840;2024-03-08T12:01:27;10.68;;;8.95;;
21806;SDS011;11065;50.786;7.840;2024-03-08T12:03:56;9.02;;;7.82;;
21806;SDS011;11065;50.786;7.840;2024-03-08T12:06:36;10.02;;;8.38;;
21806;SDS011;11065;50.786;7.840;2024-03-08T12:09:10;10.38;;;9.30;;
21806;SDS011;11065;50.786;7.840;2024-03-08T12:11:39;10.60;;;9.20;;
21806;SDS011;11065;50.786;7.840;2024-03-08T12:14:07;10.48;;;9.15;;
21806;SDS011;11065;50.786;7.840;2024-03-08T12:16:36;10.77;;;9.63;;
21806;SDS011;11065;50.786;7.840;2024-03-08T12:19:06;10.52;;;9.30;;
21806;SDS011;11065;50.786;7.840;2024-03-08T12:21:35;10.88;;;9.68;;
21806;SDS011;11065;50.786;7.840;2024-03-08T12:24:04;10.07;;;8.30;;
21806;SDS011;11065;50.786;7.840;2024-03-08T12:26:36;11.23;;;8.57;;
21806;SDS011;11065;50.786;7.840;2024-03-08T12:31:54;10.63;;;8.98;;
21806;SDS011;11065;50.786;7.840;2024-03-08T12:34:26;10.00;;;8.50;;
21806;SDS011;11065;50.786;7.840;2024-03-08T12:36:54;11.05;;;8.43;;
21806;SDS011;11065;50.786;7.840;2024-03-08T12:39:22;10.60;;;8.93;;
21806;SDS011;11065;50.786;7.840;2024-03-08T12:41:53;9.25;;;8.25;;
21806;SDS011;11065;50.786;7.840;2024-03-08T12:44:23;10.35;;;9.02;;
21806;SDS011;11065;50.786;7.840;2024-03-08T12:46:52;10.43;;;8.20;;
21806;SDS011;11065;50.786;7.840;2024-03-08T12:49:21;10.10;;;8.73;;
21806;SDS011;11065;50.786;7.840;2024-03-08T12:51:51;11.25;;;9.38;;
21806;SDS011;11065;50.786;7.840;2024-03-08T12:54:19;11.13;;;9.63;;
21806;SDS011;11065;50.786;7.840;2024-03-08T12:56:49;10.32;;;9.05;;
21806;SDS011;11065;50.786;7.840;2024-03-08T12:59:19;12.55;;;8.60;;
21806;SDS011;11065;50.786;7.840;2024-03-08T13:01:48;11.35;;;9.68;;
21806;SDS011;11065;50.786;7.840;2024-03-08T13:04:17;12.85;;;9.35;;
21806;SDS011;11065;50.786;7.840;2024-03-08T13:06:47;11.35;;;9.32;;
21806;SDS011;11065;50.786;7.840;2024-03-08T13:09:21;12.02;;;9.43;;
21806;SDS011;11065;50.786;7.840;2024-03-08T13:11:50;12.90;;;9.70;;
21806;SDS011;11065;50.786;7.840;2024-03-08T13:14:20;11.13;;;9.02;;
21806;SDS011;11065;50.786;7.840;2024-03-08T13:16:48;11.88;;;8.80;;
21806;SDS011;11065;50.786;7.840;2024-03-08T13:19:18;9.57;;;8.40;;
21806;SDS011;11065;50.786;7.840;2024-03-08T13:21:48;11.60;;;9.10;;
21806;SDS011;11065;50.786;7.840;2024-03-08T13:24:16;11.27;;;9.18;;
21806;SDS011;11065;50.786;7.840;2024-03-08T13:26:46;10.07;;;8.43;;
21806;SDS011;11065;50.786;7.840;2024-03-08T13:29:16;11.48;;;8.30;;
21806;SDS011;11065;50.786;7.840;2024-03-08T13:31:45;10.88;;;8.88;;
21806;SDS011;11065;50.786;7.840;2024-03-08T13:34:18;11.00;;;8.43;;
21806;SDS011;11065;50.786;7.840;2024-03-08T13:36:54;10.57;;;8.55;;
21806;SDS011;11065;50.786;7.840;2024-03-08T13:39:26;12.25;;;8.90;;
21806;SDS011;11065;50.786;7.840;2024-03-08T13:41:56;11.77;;;9.90;;
21806;SDS011;11065;50.786;7.840;2024-03-08T13:44:24;10.30;;;7.93;;
21806;SDS011;11065;50.786;7.840;2024-03-08T13:46:54;11.07;;;8.52;;
21806;SDS011;11065;50.786;7.840;2024-03-08T13:49:24;10.00;;;7.72;;
21806;SDS011;11065;50.786;7.840;2024-03-08T13:51:52;8.98;;;7.25;;
21806;SDS011;11065;50.786;7.840;2024-03-08T13:54:21;8.73;;;7.40;;
21806;SDS011;11065;50.786;7.840;2024-03-08T13:56:49;10.13;;;7.55;;
21806;SDS011;11065;50.786;7.840;2024-03-08T13:59:21;9.95;;;7.60;;
21806;SDS011;11065;50.786;7.840;2024-03-08T14:01:50;9.27;;;7.15;;
21806;SDS011;11065;50.786;7.840;2024-03-08T14:04:18;8.50;;;7.22;;
21806;SDS011;11065;50.786;7.840;2024-03-08T14:06:46;9.23;;;6.95;;
21806;SDS011;11065;50.786;7.840;2024-03-08T14:09:15;9.73;;;7.55;;
21806;SDS011;11065;50.786;7.840;2024-03-08T14:11:44;10.02;;;8.13;;
21806;SDS011;11065;50.786;7.840;2024-03-08T14:14:12;9.25;;;7.22;;
21806;SDS011;11065;50.786;7.840;2024-03-08T14:16:41;9.90;;;7.75;;
21806;SDS011;11065;50.786;7.840;2024-03-08T14:19:09;9.45;;;7.20;;
21806;SDS011;11065;50.786;7.840;2024-03-08T14:21:37;10.13;;;7.10;;
21806;SDS011;11065;50.786;7.840;2024-03-08T14:24:06;9.02;;;6.90;;
21806;SDS011;11065;50.786;7.840;2024-03-08T14:26:34;9.63;;;7.10;;
21806;SDS011;11065;50.786;7.840;2024-03-08T14:29:04;9.02;;;7.03;;
21806;SDS011;11065;50.786;7.840;2024-03-08T14:31:33;7.80;;;6.18;;
21806;SDS011;11065;50.786;7.840;2024-03-08T14:34:03;7.90;;;5.95;;
21806;SDS011;11065;50.786;7.840;2024-03-08T14:36:31;8.48;;;6.43;;
21806;SDS011;11065;50.786;7.840;2024-03-08T14:38:59;8.02;;;6.55;;
21806;SDS011;11065;50.786;7.840;2024-03-08T14:41:27;8.30;;;6.40;;
21806;SDS011;11065;50.786;7.840;2024-03-08T14:43:56;7.53;;;6.32;;